Time;durP1;ratioP1;P1;durP2;ratioP2;P2;SDS_P1;SDS_P2;PMS_P1;PMS_P2;Temp;Humidity;BMP_temperature;BMP_pressure;BME280_temperature;BME280_humidity;BME280_pressure;Samples;Min_cycle;Max_cycle;Signal;HPM_P1;HPM_P2
2022/03/10 00:01:17;;;;;;;5.33;4.60;;;;;;;;;;5066664;28;20670;-70
2022/03/10 00:03:51;;;;;;;6.30;4.53;;;;;;;;;;5086966;28;20391;-69
2022/03/10 00:06:18;;;;;;;6.73;4.73;;;;;;;;;;5066046;28;20217;-69
2022/03/10 00:09:02;;;;;;;6.10;4.53;;;;;;;;;;5087168;28;20232;-70
2022/03/10 00:11:35;;;;;;;5.83;4.60;;;;;;;;;;5072357;28;20198;-70
2022/03/10 00:14:03;;;;;;;7.17;4.70;;;;;;;;;;5087638;28;20242;-70
2022/03/10 00:16:31;;;;;;;5.97;4.90;;;;;;;;;;5088783;28;20196;-70
2022/03/10 00:19:05;;;;;;;5.83;4.60;;;;;;;;;;5068228;28;20217;-70
2022/03/10 00:21:35;;;;;;;4.80;4.10;;;;;;;;;;5106568;28;20286;-70
2022/03/10 00:24:06;;;;;;;5.33;4.10;;;;;;;;;;5087199;28;20200;-69
2022/03/10 00:26:41;;;;;;;5.67;3.93;;;;;;;;;;5072293;28;20225;-70
2022/03/10 00:29:11;;;;;;;6.50;4.30;;;;;;;;;;5087357;28;20205;-69
2022/03/10 00:31:42;;;;;;;4.73;4.23;;;;;;;;;;5069856;28;20209;-70
2022/03/10 00:34:14;;;;;;;5.07;4.33;;;;;;;;;;5084448;28;20200;-70
2022/03/10 00:36:42;;;;;;;5.03;3.90;;;;;;;;;;5087577;28;20274;-69
2022/03/10 00:39:13;;;;;;;4.90;4.37;;;;;;;;;;5090417;28;20196;-70
2022/03/10 00:41:42;;;;;;;4.60;4.20;;;;;;;;;;5088646;28;20212;-69
2022/03/10 00:44:13;;;;;;;5.60;3.97;;;;;;;;;;5082701;28;20221;-71
2022/03/10 00:46:43;;;;;;;5.30;4.20;;;;;;;;;;5073834;28;20197;-71
2022/03/10 00:49:16;;;;;;;4.40;4.00;;;;;;;;;;5088989;28;20197;-70
2022/03/10 00:51:48;;;;;;;4.97;4.00;;;;;;;;;;5088975;28;20199;-69
2022/03/10 00:54:18;;;;;;;5.33;4.43;;;;;;;;;;5071947;28;20243;-70
2022/03/10 00:56:45;;;;;;;5.03;4.17;;;;;;;;;;5102734;28;20212;-70
2022/03/10 00:59:14;;;;;;;4.50;4.00;;;;;;;;;;5085841;28;20206;-70
2022/03/10 01:01:45;;;;;;;4.63;4.17;;;;;;;;;;5065506;28;20227;-70
2022/03/10 01:04:17;;;;;;;5.13;4.27;;;;;;;;;;5085096;28;20236;-70
2022/03/10 01:06:45;;;;;;;4.73;3.90;;;;;;;;;;5085973;28;20216;-69
2022/03/10 01:09:16;;;;;;;4.93;3.97;;;;;;;;;;5098449;28;20184;-70
2022/03/10 01:11:45;;;;;;;5.53;4.40;;;;;;;;;;5080806;28;20201;-70
2022/03/10 01:14:16;;;;;;;4.73;3.97;;;;;;;;;;5080899;28;20205;-69
2022/03/10 01:16:48;;;;;;;3.70;3.37;;;;;;;;;;5088279;28;20213;-70
2022/03/10 01:19:19;;;;;;;4.20;3.80;;;;;;;;;;5076677;28;20218;-69
2022/03/10 01:21:50;;;;;;;3.90;3.50;;;;;;;;;;5082756;28;20240;-69
2022/03/10 01:24:23;;;;;;;4.10;3.30;;;;;;;;;;5075213;28;20259;-70
2022/03/10 01:26:55;;;;;;;5.23;3.50;;;;;;;;;;5083728;28;20910;-70
2022/03/10 01:29:45;;;;;;;4.10;3.60;;;;;;;;;;5106033;28;20189;-70
2022/03/10 01:32:17;;;;;;;4.30;3.73;;;;;;;;;;5082406;28;20224;-70
2022/03/10 01:34:49;;;;;;;4.30;3.83;;;;;;;;;;5072119;28;20213;-70
2022/03/10 01:37:20;;;;;;;4.07;3.63;;;;;;;;;;5089271;28;20217;-71
2022/03/10 01:39:50;;;;;;;4.10;3.63;;;;;;;;;;5088278;28;20201;-70
2022/03/10 01:42:25;;;;;;;4.47;3.93;;;;;;;;;;5082792;28;20279;-70
2022/03/10 01:44:54;;;;;;;4.00;3.60;;;;;;;;;;5082314;28;20228;-71
2022/03/10 01:47:26;;;;;;;5.43;3.70;;;;;;;;;;5072803;28;20204;-70
2022/03/10 01:49:56;;;;;;;4.97;3.90;;;;;;;;;;5087531;28;20193;-69
2022/03/10 01:52:24;;;;;;;4.23;3.77;;;;;;;;;;5089595;28;20281;-69
2022/03/10 01:54:56;;;;;;;3.63;3.33;;;;;;;;;;5067803;28;20213;-69
2022/03/10 01:57:27;;;;;;;4.03;3.63;;;;;;;;;;5084243;28;20623;-70
2022/03/10 01:59:55;;;;;;;3.90;3.47;;;;;;;;;;5073553;28;20261;-69
2022/03/10 02:02:25;;;;;;;3.87;3.40;;;;;;;;;;5072361;28;20217;-70
2022/03/10 02:04:56;;;;;;;3.83;3.53;;;;;;;;;;5070403;28;20200;-71
2022/03/10 02:10:19;;;;;;;4.00;3.43;;;;;;;;;;5060343;28;20204;-69
2022/03/10 02:12:54;;;;;;;4.00;3.60;;;;;;;;;;5067052;28;20197;-70
2022/03/10 02:18:21;;;;;;;4.50;3.70;;;;;;;;;;5080028;28;20838;-70
2022/03/10 02:20:53;;;;;;;4.03;3.63;;;;;;;;;;5089803;28;20227;-71
2022/03/10 02:23:30;;;;;;;4.17;3.77;;;;;;;;;;5088551;28;20630;-71
2022/03/10 02:26:06;;;;;;;3.70;3.37;;;;;;;;;;5086829;28;20236;-70
2022/03/10 02:28:36;;;;;;;4.00;3.43;;;;;;;;;;5080143;28;20204;-70
2022/03/10 02:31:20;;;;;;;4.17;3.77;;;;;;;;;;5073317;28;20618;-70
2022/03/10 02:33:56;;;;;;;3.63;3.33;;;;;;;;;;5093040;28;20207;-70
2022/03/10 02:36:30;;;;;;;4.30;3.87;;;;;;;;;;5076718;28;20204;-70
2022/03/10 02:38:59;;;;;;;4.00;3.60;;;;;;;;;;5078712;28;20212;-70
2022/03/10 02:41:30;;;;;;;4.73;3.57;;;;;;;;;;5088414;28;20197;-71
2022/03/10 02:44:03;;;;;;;4.43;3.63;;;;;;;;;;5083331;28;20215;-70
2022/03/10 02:46:40;;;;;;;4.00;3.70;;;;;;;;;;5101413;28;20198;-70
2022/03/10 02:49:12;;;;;;;4.10;3.67;;;;;;;;;;5090174;28;20212;-70
2022/03/10 02:51:46;;;;;;;4.00;3.50;;;;;;;;;;5090899;28;20258;-70
2022/03/10 02:54:17;;;;;;;3.67;3.30;;;;;;;;;;5065683;28;20576;-69
2022/03/10 02:56:49;;;;;;;3.50;3.20;;;;;;;;;;5080974;28;20210;-70
2022/03/10 02:59:19;;;;;;;4.13;3.73;;;;;;;;;;5085803;28;20579;-69
2022/03/10 03:01:49;;;;;;;4.20;3.80;;;;;;;;;;5087049;28;21131;-70
2022/03/10 03:04:19;;;;;;;4.57;3.77;;;;;;;;;;5099629;28;20205;-69
2022/03/10 03:06:49;;;;;;;3.77;3.43;;;;;;;;;;5095486;28;20626;-70
2022/03/10 03:09:21;;;;;;;4.63;3.77;;;;;;;;;;5070115;28;20205;-70
2022/03/10 03:11:53;;;;;;;3.70;3.40;;;;;;;;;;5053777;28;20211;-70
2022/03/10 03:14:23;;;;;;;4.53;4.10;;;;;;;;;;5082203;28;20737;-70
2022/03/10 03:16:59;;;;;;;3.87;3.53;;;;;;;;;;5072945;28;20224;-70
2022/03/10 03:19:29;;;;;;;4.17;3.40;;;;;;;;;;5090666;28;20216;-70
2022/03/10 03:22:01;;;;;;;4.10;3.70;;;;;;;;;;5079130;28;20231;-70
2022/03/10 03:24:35;;;;;;;4.03;3.60;;;;;;;;;;5079005;28;20198;-70
2022/03/10 03:27:06;;;;;;;3.83;3.53;;;;;;;;;;5077380;28;20236;-70
2022/03/10 03:29:37;;;;;;;3.80;3.43;;;;;;;;;;5079424;28;20194;-70
2022/03/10 03:32:07;;;;;;;5.30;3.20;;;;;;;;;;5075577;28;20208;-71
2022/03/10 03:34:39;;;;;;;3.80;3.40;;;;;;;;;;5087584;28;20212;-70
2022/03/10 03:37:11;;;;;;;4.87;3.63;;;;;;;;;;5086922;28;20217;-70
2022/03/10 03:39:39;;;;;;;4.43;4.00;;;;;;;;;;5086269;28;20201;-70
2022/03/10 03:42:10;;;;;;;4.93;4.00;;;;;;;;;;5080778;28;20285;-69
2022/03/10 03:44:40;;;;;;;4.17;3.40;;;;;;;;;;5090613;28;20200;-70
2022/03/10 03:47:10;;;;;;;4.10;3.70;;;;;;;;;;5093995;28;20196;-69
2022/03/10 03:49:42;;;;;;;4.30;3.53;;;;;;;;;;5090387;28;20204;-70
2022/03/10 03:52:12;;;;;;;5.40;3.63;;;;;;;;;;5088258;28;20228;-70
2022/03/10 03:54:39;;;;;;;4.23;3.80;;;;;;;;;;5089553;28;20251;-71
2022/03/10 03:57:07;;;;;;;4.70;4.20;;;;;;;;;;5090701;28;20205;-71
2022/03/10 03:59:44;;;;;;;5.53;3.80;;;;;;;;;;5099769;28;20201;-70
2022/03/10 04:02:17;;;;;;;5.47;3.70;;;;;;;;;;5083726;28;20232;-71
2022/03/10 04:04:48;;;;;;;4.00;3.30;;;;;;;;;;5078989;28;20207;-70
2022/03/10 04:07:15;;;;;;;4.13;3.73;;;;;;;;;;5087159;28;20267;-71
2022/03/10 04:09:53;;;;;;;3.87;3.47;;;;;;;;;;5056942;28;20201;-73
2022/03/10 04:12:23;;;;;;;4.73;4.23;;;;;;;;;;5089507;28;20823;-71
2022/03/10 04:14:52;;;;;;;5.27;4.00;;;;;;;;;;5079337;28;20189;-71
2022/03/10 04:17:24;;;;;;;7.10;4.07;;;;;;;;;;5091735;28;20208;-70
2022/03/10 04:19:59;;;;;;;4.37;3.67;;;;;;;;;;5086847;28;20213;-71
2022/03/10 04:22:30;;;;;;;5.03;3.50;;;;;;;;;;5088711;28;20220;-71
2022/03/10 04:25:00;;;;;;;8.83;3.93;;;;;;;;;;5089829;28;20238;-71
2022/03/10 04:27:29;;;;;;;5.57;3.80;;;;;;;;;;5083765;28;20238;-71
2022/03/10 04:29:58;;;;;;;4.53;4.10;;;;;;;;;;5082621;28;20193;-71
2022/03/10 04:32:29;;;;;;;5.30;3.60;;;;;;;;;;5092716;28;20208;-71
2022/03/10 04:34:57;;;;;;;4.77;4.07;;;;;;;;;;5068951;28;20253;-70
2022/03/10 04:37:26;;;;;;;4.47;3.50;;;;;;;;;;5070924;28;20208;-70
2022/03/10 04:39:57;;;;;;;4.33;3.93;;;;;;;;;;5089463;28;20207;-70
2022/03/10 04:42:29;;;;;;;4.10;3.70;;;;;;;;;;5088385;28;20236;-70
2022/03/10 04:44:58;;;;;;;4.97;4.10;;;;;;;;;;5093850;28;20205;-71
2022/03/10 04:47:33;;;;;;;4.63;4.00;;;;;;;;;;5103604;28;20273;-70
2022/03/10 04:50:07;;;;;;;4.70;4.03;;;;;;;;;;5089317;28;20244;-71
2022/03/10 04:52:38;;;;;;;4.17;3.77;;;;;;;;;;5090571;28;20197;-71
2022/03/10 04:55:12;;;;;;;4.27;3.80;;;;;;;;;;5070865;28;20229;-70
2022/03/10 04:57:45;;;;;;;4.50;4.10;;;;;;;;;;5090082;28;20545;-71
2022/03/10 05:00:18;;;;;;;3.93;3.57;;;;;;;;;;5052751;28;20201;-71
2022/03/10 05:02:50;;;;;;;3.73;3.43;;;;;;;;;;5108406;28;20219;-71
2022/03/10 05:05:34;;;;;;;4.73;3.50;;;;;;;;;;5087137;28;20205;-71
2022/03/10 05:08:04;;;;;;;4.67;4.23;;;;;;;;;;5079031;28;20217;-70
2022/03/10 05:10:33;;;;;;;5.10;4.10;;;;;;;;;;5091438;28;20193;-71
2022/03/10 05:13:04;;;;;;;5.80;4.20;;;;;;;;;;5077526;28;20225;-71
2022/03/10 05:15:33;;;;;;;5.33;4.33;;;;;;;;;;5109179;27;20200;-71
2022/03/10 05:18:06;;;;;;;4.53;3.93;;;;;;;;;;5096044;28;20208;-71
2022/03/10 05:20:37;;;;;;;4.10;3.70;;;;;;;;;;5081718;28;20258;-71
2022/03/10 05:23:10;;;;;;;7.20;4.23;;;;;;;;;;5097999;28;20301;-71
2022/03/10 05:25:41;;;;;;;6.17;4.30;;;;;;;;;;5082505;28;20208;-70
2022/03/10 05:28:15;;;;;;;4.83;4.40;;;;;;;;;;5057925;28;20300;-70
2022/03/10 05:30:48;;;;;;;4.30;3.90;;;;;;;;;;5066609;28;20214;-71
2022/03/10 05:33:20;;;;;;;4.17;3.77;;;;;;;;;;5068169;28;20248;-71
2022/03/10 05:35:50;;;;;;;4.37;3.97;;;;;;;;;;5071679;28;20197;-71
2022/03/10 05:38:20;;;;;;;4.50;3.90;;;;;;;;;;5066557;28;20227;-71
2022/03/10 05:40:52;;;;;;;4.33;3.93;;;;;;;;;;5085265;28;20206;-71
2022/03/10 05:43:24;;;;;;;4.33;3.93;;;;;;;;;;5064069;28;20662;-71
2022/03/10 05:45:53;;;;;;;4.57;4.10;;;;;;;;;;5074675;28;20255;-71
2022/03/10 05:48:24;;;;;;;4.40;4.00;;;;;;;;;;5067159;28;20206;-71
2022/03/10 05:51:02;;;;;;;4.70;4.20;;;;;;;;;;5085063;28;20239;-69
2022/03/10 05:53:38;;;;;;;3.63;3.30;;;;;;;;;;5067957;28;20292;-70
2022/03/10 05:56:09;;;;;;;5.30;3.93;;;;;;;;;;5079280;28;20209;-70
2022/03/10 05:58:41;;;;;;;5.87;3.97;;;;;;;;;;5065042;28;20213;-70
2022/03/10 06:01:15;;;;;;;3.83;3.53;;;;;;;;;;5062756;28;20205;-71
2022/03/10 06:03:46;;;;;;;4.57;4.17;;;;;;;;;;5063985;28;20230;-70
2022/03/10 06:06:14;;;;;;;4.47;4.07;;;;;;;;;;5053199;28;20209;-70
2022/03/10 06:08:45;;;;;;;5.00;4.20;;;;;;;;;;5073423;28;20196;-70
2022/03/10 06:11:17;;;;;;;4.07;3.67;;;;;;;;;;5079275;28;20213;-70
2022/03/10 06:13:57;;;;;;;5.13;4.63;;;;;;;;;;5064340;28;20201;-69
2022/03/10 06:16:29;;;;;;;4.80;4.33;;;;;;;;;;5068203;28;20849;-70
2022/03/10 06:18:58;;;;;;;4.77;4.37;;;;;;;;;;5052554;28;20226;-71
2022/03/10 06:21:28;;;;;;;6.07;4.80;;;;;;;;;;5068638;28;20213;-71
2022/03/10 06:23:58;;;;;;;14.10;7.07;;;;;;;;;;5085446;28;20447;-70
2022/03/10 06:26:27;;;;;;;8.27;5.57;;;;;;;;;;5067149;28;20796;-68
2022/03/10 06:28:58;;;;;;;13.37;6.87;;;;;;;;;;5064287;28;20217;-69
2022/03/10 06:31:27;;;;;;;12.67;6.77;;;;;;;;;;5061333;28;20267;-68
2022/03/10 06:33:57;;;;;;;16.87;6.70;;;;;;;;;;5066963;28;20201;-69
2022/03/10 06:36:29;;;;;;;14.57;7.80;;;;;;;;;;5069807;28;20206;-70
2022/03/10 06:39:00;;;;;;;15.67;7.37;;;;;;;;;;5056433;28;20267;-69
2022/03/10 06:41:31;;;;;;;14.47;7.17;;;;;;;;;;5068244;28;20205;-70
2022/03/10 06:44:02;;;;;;;15.00;7.30;;;;;;;;;;5055536;28;20238;-71
2022/03/10 06:46:32;;;;;;;14.67;7.07;;;;;;;;;;5070033;28;20325;-69
2022/03/10 06:49:03;;;;;;;10.07;6.43;;;;;;;;;;5058818;28;20201;-70
2022/03/10 06:51:34;;;;;;;10.87;7.33;;;;;;;;;;5071634;28;20244;-70
2022/03/10 06:54:04;;;;;;;12.70;7.93;;;;;;;;;;5047848;28;20615;-70
2022/03/10 06:56:35;;;;;;;14.77;6.83;;;;;;;;;;5068145;28;20205;-68
2022/03/10 06:59:05;;;;;;;12.17;7.50;;;;;;;;;;5067562;28;20201;-69
2022/03/10 07:01:35;;;;;;;12.60;7.83;;;;;;;;;;5069735;28;20202;-69
2022/03/10 07:04:06;;;;;;;10.87;7.07;;;;;;;;;;5047388;28;20218;-69
2022/03/10 07:06:35;;;;;;;12.00;6.70;;;;;;;;;;5064307;28;20210;-70
2022/03/10 07:09:05;;;;;;;11.83;7.00;;;;;;;;;;5046725;28;20603;-70
2022/03/10 07:11:35;;;;;;;9.73;6.80;;;;;;;;;;5063807;28;20211;-70
2022/03/10 07:14:05;;;;;;;11.00;7.03;;;;;;;;;;5052881;28;20193;-70
2022/03/10 07:16:36;;;;;;;11.47;7.10;;;;;;;;;;5069421;28;20206;-70
2022/03/10 07:19:09;;;;;;;12.73;7.20;;;;;;;;;;5046394;28;20217;-71
2022/03/10 07:21:40;;;;;;;11.07;6.70;;;;;;;;;;5064273;28;20205;-69
2022/03/10 07:24:11;;;;;;;9.37;6.63;;;;;;;;;;5065703;28;20225;-69
2022/03/10 07:26:40;;;;;;;10.67;6.70;;;;;;;;;;5068010;28;20243;-72
2022/03/10 07:29:10;;;;;;;10.53;6.83;;;;;;;;;;5045909;28;20225;-71
2022/03/10 07:31:38;;;;;;;9.40;6.30;;;;;;;;;;5047683;28;20217;-69
2022/03/10 07:34:06;;;;;;;9.03;5.90;;;;;;;;;;5059978;28;20550;-69
2022/03/10 07:36:42;;;;;;;8.83;6.43;;;;;;;;;;5065411;28;20209;-69
2022/03/10 07:39:11;;;;;;;8.87;6.47;;;;;;;;;;5064163;28;20206;-70
2022/03/10 07:41:41;;;;;;;7.80;5.63;;;;;;;;;;5064052;28;20194;-71
2022/03/10 07:44:13;;;;;;;9.33;6.63;;;;;;;;;;5061290;28;20235;-71
2022/03/10 07:46:47;;;;;;;9.90;6.53;;;;;;;;;;5052423;28;20201;-71
2022/03/10 07:49:24;;;;;;;10.37;6.10;;;;;;;;;;5022844;28;20221;-71
2022/03/10 07:52:00;;;;;;;9.37;5.90;;;;;;;;;;5055338;28;20230;-71
2022/03/10 07:54:30;;;;;;;8.83;6.37;;;;;;;;;;5066843;28;20213;-68
2022/03/10 07:57:05;;;;;;;8.80;6.67;;;;;;;;;;5060649;28;20823;-70
2022/03/10 07:59:37;;;;;;;15.43;7.13;;;;;;;;;;5063519;28;20206;-68
2022/03/10 08:02:09;;;;;;;21.60;7.10;;;;;;;;;;5058614;28;20210;-68
2022/03/10 08:04:41;;;;;;;19.77;6.70;;;;;;;;;;5068549;28;20213;-67
2022/03/10 08:07:15;;;;;;;16.17;6.70;;;;;;;;;;5047759;28;20210;-66
2022/03/10 08:09:47;;;;;;;9.87;6.80;;;;;;;;;;5072328;28;20187;-65
2022/03/10 08:12:15;;;;;;;12.83;6.63;;;;;;;;;;5071503;28;20194;-66
2022/03/10 08:14:45;;;;;;;10.03;5.87;;;;;;;;;;5070942;28;20205;-68
2022/03/10 08:17:14;;;;;;;7.40;5.37;;;;;;;;;;5073828;28;20204;-66
2022/03/10 08:19:44;;;;;;;9.77;5.80;;;;;;;;;;5066610;28;20307;-66
2022/03/10 08:22:18;;;;;;;12.30;5.70;;;;;;;;;;5073242;28;20205;-67
2022/03/10 08:24:49;;;;;;;9.00;5.43;;;;;;;;;;5060701;28;20300;-67
2022/03/10 08:27:17;;;;;;;7.63;5.07;;;;;;;;;;5067891;28;20240;-65
2022/03/10 08:29:47;;;;;;;9.87;5.77;;;;;;;;;;5072161;28;20213;-66
2022/03/10 08:32:39;;;;;;;8.53;5.20;;;;;;;;;;5079115;28;20434;-67
2022/03/10 08:35:15;;;;;;;8.33;5.33;;;;;;;;;;5077078;28;20209;-68
2022/03/10 08:37:46;;;;;;;6.40;4.83;;;;;;;;;;5061423;28;20205;-69
2022/03/10 08:40:19;;;;;;;5.97;4.97;;;;;;;;;;5072400;28;20498;-70
2022/03/10 08:42:49;;;;;;;6.30;4.70;;;;;;;;;;5076237;28;20263;-69
2022/03/10 08:45:34;;;;;;;6.50;4.67;;;;;;;;;;5075605;28;20670;-70
2022/03/10 08:48:02;;;;;;;6.50;4.40;;;;;;;;;;5057399;28;20240;-70
2022/03/10 08:50:33;;;;;;;7.73;4.73;;;;;;;;;;5075968;28;20593;-67
2022/03/10 08:53:05;;;;;;;6.27;4.70;;;;;;;;;;5089486;28;20206;-67
2022/03/10 08:55:35;;;;;;;6.20;4.30;;;;;;;;;;5075012;28;20529;-68
2022/03/10 08:58:06;;;;;;;7.40;4.67;;;;;;;;;;5051572;28;20563;-69
2022/03/10 09:00:38;;;;;;;5.50;4.00;;;;;;;;;;5078820;28;20202;-67
2022/03/10 09:03:05;;;;;;;8.67;4.33;;;;;;;;;;5076860;28;20198;-66
2022/03/10 09:05:37;;;;;;;6.27;4.77;;;;;;;;;;5075054;28;20300;-65
2022/03/10 09:08:22;;;;;;;5.20;4.00;;;;;;;;;;5075167;28;20781;-64
2022/03/10 09:10:51;;;;;;;5.27;3.77;;;;;;;;;;5082643;28;20221;-67
2022/03/10 09:13:28;;;;;;;5.00;3.97;;;;;;;;;;5071143;28;20226;-69
2022/03/10 09:15:59;;;;;;;4.63;4.03;;;;;;;;;;5078854;28;20197;-71
2022/03/10 09:18:41;;;;;;;4.73;3.67;;;;;;;;;;5077609;28;20248;-72
2022/03/10 09:21:15;;;;;;;6.00;4.10;;;;;;;;;;5079482;28;20197;-66
2022/03/10 09:23:49;;;;;;;6.17;4.17;;;;;;;;;;5061717;28;20328;-68
2022/03/10 09:26:21;;;;;;;6.03;3.97;;;;;;;;;;5075629;28;20316;-68
2022/03/10 09:28:49;;;;;;;4.40;4.00;;;;;;;;;;5078075;28;20204;-68
2022/03/10 09:31:21;;;;;;;5.50;4.10;;;;;;;;;;5079973;28;20244;-71
2022/03/10 09:33:53;;;;;;;5.67;3.83;;;;;;;;;;5081914;28;20216;-70
2022/03/10 09:36:26;;;;;;;6.20;3.90;;;;;;;;;;5080102;28;20589;-73
2022/03/10 09:38:58;;;;;;;5.63;4.40;;;;;;;;;;5079587;28;20197;-73
2022/03/10 09:41:28;;;;;;;4.80;4.27;;;;;;;;;;5074625;28;20197;-69
2022/03/10 09:44:10;;;;;;;5.20;4.33;;;;;;;;;;5072994;28;20233;-69
2022/03/10 09:46:42;;;;;;;6.43;4.70;;;;;;;;;;5064420;28;20203;-73
2022/03/10 09:49:11;;;;;;;5.40;4.53;;;;;;;;;;5063268;28;20224;-72
2022/03/10 09:51:42;;;;;;;4.97;4.40;;;;;;;;;;5077492;28;20209;-67
2022/03/10 09:54:14;;;;;;;5.03;4.53;;;;;;;;;;5070780;28;20272;-67
2022/03/10 09:56:45;;;;;;;5.60;4.50;;;;;;;;;;5081101;28;20208;-67
2022/03/10 09:59:17;;;;;;;5.80;5.00;;;;;;;;;;5081719;28;20228;-69
2022/03/10 10:01:46;;;;;;;6.90;6.00;;;;;;;;;;5080376;28;20197;-71
2022/03/10 10:04:15;;;;;;;6.77;6.07;;;;;;;;;;5074695;28;20251;-69
2022/03/10 10:07:06;;;;;;;6.27;5.57;;;;;;;;;;5081010;28;20240;-70
2022/03/10 10:09:43;;;;;;;6.83;5.17;;;;;;;;;;5074864;28;20189;-70
2022/03/10 10:12:14;;;;;;;6.80;6.10;;;;;;;;;;5062734;28;20185;-70
2022/03/10 10:14:45;;;;;;;7.07;6.30;;;;;;;;;;5061339;28;20255;-70
2022/03/10 10:17:16;;;;;;;7.23;6.17;;;;;;;;;;5072430;28;20228;-66
2022/03/10 10:19:48;;;;;;;8.37;6.80;;;;;;;;;;5074854;28;20231;-68
2022/03/10 10:22:38;;;;;;;6.30;5.60;;;;;;;;;;5079960;28;20200;-68
2022/03/10 10:25:10;;;;;;;7.60;5.80;;;;;;;;;;5075267;28;20659;-69
2022/03/10 10:27:42;;;;;;;6.83;5.57;;;;;;;;;;5080404;28;20233;-70
2022/03/10 10:30:16;;;;;;;8.17;5.87;;;;;;;;;;5073905;28;20370;-70
2022/03/10 10:32:55;;;;;;;6.90;6.20;;;;;;;;;;5076753;28;20192;-70
2022/03/10 10:35:29;;;;;;;6.97;5.77;;;;;;;;;;5070777;28;20909;-67
2022/03/10 10:38:02;;;;;;;8.30;5.90;;;;;;;;;;5078423;28;20583;-68
2022/03/10 10:40:33;;;;;;;5.97;5.37;;;;;;;;;;5076452;28;20741;-70
2022/03/10 10:43:07;;;;;;;7.13;6.30;;;;;;;;;;5073521;28;20228;-72
2022/03/10 10:45:43;;;;;;;7.87;6.13;;;;;;;;;;5077315;28;20208;-72
2022/03/10 10:48:25;;;;;;;7.53;6.10;;;;;;;;;;5077052;28;20189;-72
2022/03/10 10:50:55;;;;;;;6.77;5.77;;;;;;;;;;5077813;28;20205;-72
2022/03/10 10:53:30;;;;;;;8.60;5.80;;;;;;;;;;5075824;28;20193;-73
2022/03/10 10:56:04;;;;;;;6.20;5.60;;;;;;;;;;5071231;28;20220;-72
2022/03/10 10:58:38;;;;;;;6.77;5.30;;;;;;;;;;5077702;28;20207;-71
2022/03/10 11:01:09;;;;;;;7.60;6.40;;;;;;;;;;5073434;28;20200;-69
2022/03/10 11:03:37;;;;;;;9.07;6.63;;;;;;;;;;5077142;28;20201;-70
2022/03/10 11:06:10;;;;;;;7.53;6.33;;;;;;;;;;5067546;28;20199;-72
2022/03/10 11:08:41;;;;;;;7.97;6.17;;;;;;;;;;5040738;28;20212;-72
2022/03/10 11:11:14;;;;;;;6.73;6.03;;;;;;;;;;5060333;28;20825;-70
2022/03/10 11:13:45;;;;;;;7.47;6.77;;;;;;;;;;5059971;28;20193;-69
2022/03/10 11:16:17;;;;;;;7.80;7.00;;;;;;;;;;5076456;28;20185;-72
2022/03/10 11:18:52;;;;;;;8.40;7.27;;;;;;;;;;5037872;28;20576;-72
2022/03/10 11:21:37;;;;;;;7.77;6.57;;;;;;;;;;5073536;28;20196;-70
2022/03/10 11:24:38;;;;;;;8.23;6.80;;;;;;;;;;5073694;28;20256;-70
2022/03/10 11:27:15;;;;;;;8.33;6.93;;;;;;;;;;5076282;28;20233;-73
2022/03/10 11:29:49;;;;;;;7.87;6.43;;;;;;;;;;5071335;28;20676;-71
2022/03/10 11:32:30;;;;;;;9.07;7.13;;;;;;;;;;5060851;28;20258;-70
2022/03/10 11:35:07;;;;;;;9.17;6.63;;;;;;;;;;5067796;28;20781;-69
2022/03/10 11:37:56;;;;;;;8.53;6.87;;;;;;;;;;5037380;28;20209;-70
2022/03/10 11:40:44;;;;;;;8.43;6.20;;;;;;;;;;5074407;28;20194;-69
2022/03/10 11:43:33;;;;;;;13.23;6.43;;;;;;;;;;5072284;28;20206;-68
2022/03/10 11:46:21;;;;;;;7.47;5.90;;;;;;;;;;5072818;28;20212;-67
2022/03/10 11:49:11;;;;;;;6.73;6.03;;;;;;;;;;5059277;28;20194;-67
2022/03/10 11:51:54;;;;;;;8.30;6.00;;;;;;;;;;5072676;28;21171;-69
2022/03/10 11:54:27;;;;;;;6.80;6.10;;;;;;;;;;5077017;28;20200;-69
2022/03/10 11:57:13;;;;;;;7.03;6.17;;;;;;;;;;5079358;28;20693;-70
2022/03/10 11:59:46;;;;;;;7.80;6.23;;;;;;;;;;5080137;28;20258;-70
2022/03/10 12:02:30;;;;;;;8.50;6.33;;;;;;;;;;5054936;28;20205;-70
2022/03/10 12:05:02;;;;;;;6.93;6.23;;;;;;;;;;5084315;28;20240;-70
2022/03/10 12:07:35;;;;;;;7.00;6.20;;;;;;;;;;5071279;28;20208;-72
2022/03/10 12:10:10;;;;;;;6.53;5.80;;;;;;;;;;5075149;28;20218;-69
2022/03/10 12:12:45;;;;;;;6.50;5.67;;;;;;;;;;5063101;28;20226;-69
2022/03/10 12:15:26;;;;;;;7.47;5.40;;;;;;;;;;5076089;28;20199;-69
2022/03/10 12:18:02;;;;;;;6.90;6.10;;;;;;;;;;5078358;28;20568;-68
2022/03/10 12:20:46;;;;;;;7.83;6.13;;;;;;;;;;5082644;28;20521;-66
2022/03/10 12:23:19;;;;;;;8.77;6.13;;;;;;;;;;5063619;28;20203;-67
2022/03/10 12:25:50;;;;;;;7.27;5.90;;;;;;;;;;5084706;28;20205;-67
2022/03/10 12:28:27;;;;;;;8.33;5.70;;;;;;;;;;5081193;28;20233;-65
2022/03/10 12:31:19;;;;;;;7.03;5.90;;;;;;;;;;5081388;28;20211;-65
2022/03/10 12:33:49;;;;;;;6.30;5.70;;;;;;;;;;5062523;28;20198;-66
2022/03/10 12:36:29;;;;;;;6.47;5.70;;;;;;;;;;5079767;28;20223;-66
2022/03/10 12:38:58;;;;;;;7.13;5.47;;;;;;;;;;5079523;28;20200;-66
2022/03/10 12:41:30;;;;;;;5.93;5.33;;;;;;;;;;5081648;28;20741;-66
2022/03/10 12:44:03;;;;;;;6.63;5.50;;;;;;;;;;5079071;28;20236;-65
2022/03/10 12:46:39;;;;;;;8.33;5.33;;;;;;;;;;5081279;28;20192;-67
2022/03/10 12:49:27;;;;;;;6.80;6.00;;;;;;;;;;5079817;28;20206;-66
2022/03/10 12:51:57;;;;;;;7.00;5.67;;;;;;;;;;5079822;28;20201;-66
2022/03/10 12:54:29;;;;;;;5.80;5.20;;;;;;;;;;5074854;28;20217;-67
2022/03/10 12:57:06;;;;;;;6.57;5.90;;;;;;;;;;5076470;28;20189;-69
2022/03/10 12:59:41;;;;;;;6.40;5.67;;;;;;;;;;5080634;28;20759;-68
2022/03/10 13:02:29;;;;;;;7.30;5.60;;;;;;;;;;5078632;28;20244;-65
2022/03/10 13:05:06;;;;;;;5.83;5.10;;;;;;;;;;5062005;28;20201;-65
2022/03/10 13:07:38;;;;;;;6.27;5.10;;;;;;;;;;5075414;28;20288;-67
2022/03/10 13:10:13;;;;;;;5.80;5.27;;;;;;;;;;5075136;28;20191;-67
2022/03/10 13:12:47;;;;;;;6.10;5.37;;;;;;;;;;5076912;28;20203;-69
2022/03/10 13:15:33;;;;;;;7.37;6.17;;;;;;;;;;5065632;28;20281;-70
2022/03/10 13:18:10;;;;;;;6.20;5.60;;;;;;;;;;5057383;28;20192;-67
2022/03/10 13:20:48;;;;;;;6.43;5.73;;;;;;;;;;5062055;28;20211;-67
2022/03/10 13:23:24;;;;;;;7.20;6.37;;;;;;;;;;5079322;28;20237;-68
2022/03/10 13:25:54;;;;;;;6.77;6.03;;;;;;;;;;5076759;28;20217;-68
2022/03/10 13:28:25;;;;;;;8.03;6.33;;;;;;;;;;5048337;28;20265;-68
2022/03/10 13:30:56;;;;;;;6.97;6.17;;;;;;;;;;5053202;28;20206;-67
2022/03/10 13:33:32;;;;;;;7.43;6.60;;;;;;;;;;5057439;28;20244;-67
2022/03/10 13:36:04;;;;;;;8.30;6.57;;;;;;;;;;5056153;28;20205;-65
2022/03/10 13:38:38;;;;;;;7.40;6.50;;;;;;;;;;5060004;28;20213;-65
2022/03/10 13:41:16;;;;;;;6.73;6.03;;;;;;;;;;5059995;28;20201;-68
2022/03/10 13:43:46;;;;;;;9.27;6.43;;;;;;;;;;5057457;28;20222;-67
2022/03/10 13:46:20;;;;;;;8.00;6.10;;;;;;;;;;5061031;28;20639;-69
2022/03/10 13:48:54;;;;;;;7.03;6.33;;;;;;;;;;5046291;28;20198;-69
2022/03/10 13:51:25;;;;;;;7.30;6.60;;;;;;;;;;5057198;28;20197;-68
2022/03/10 13:53:55;;;;;;;7.17;6.47;;;;;;;;;;5038464;28;20209;-69
2022/03/10 13:56:32;;;;;;;7.13;6.27;;;;;;;;;;5052392;28;20201;-69
2022/03/10 13:59:04;;;;;;;6.70;6.00;;;;;;;;;;5039950;28;20194;-68
2022/03/10 14:01:42;;;;;;;8.43;6.63;;;;;;;;;;5043044;28;20201;-68
2022/03/10 14:04:13;;;;;;;7.83;6.83;;;;;;;;;;5037310;28;20521;-68
2022/03/10 14:07:09;;;;;;;11.13;7.30;;;;;;;;;;5054934;28;20209;-67
2022/03/10 14:09:42;;;;;;;8.60;7.10;;;;;;;;;;5042641;28;20205;-67
2022/03/10 14:12:16;;;;;;;10.30;7.53;;;;;;;;;;5052302;28;20215;-68
2022/03/10 14:14:52;;;;;;;7.60;6.80;;;;;;;;;;5073397;28;20826;-69
2022/03/10 14:17:45;;;;;;;8.63;7.10;;;;;;;;;;5041915;28;20205;-68
2022/03/10 14:20:18;;;;;;;8.90;7.97;;;;;;;;;;5037541;28;20612;-68
2022/03/10 14:22:47;;;;;;;10.17;7.50;;;;;;;;;;5059304;28;20674;-69
2022/03/10 14:25:18;;;;;;;9.33;8.27;;;;;;;;;;5056302;28;20655;-69
2022/03/10 14:28:01;;;;;;;9.43;8.00;;;;;;;;;;5068491;28;20233;-69
2022/03/10 14:30:29;;;;;;;7.90;6.80;;;;;;;;;;5075738;28;20201;-67
2022/03/10 14:32:59;;;;;;;9.97;8.43;;;;;;;;;;5076782;28;20542;-67
2022/03/10 14:35:29;;;;;;;9.37;8.27;;;;;;;;;;5075838;28;20274;-68
2022/03/10 14:38:03;;;;;;;10.40;8.40;;;;;;;;;;5072302;28;20209;-68
2022/03/10 14:40:31;;;;;;;9.87;8.70;;;;;;;;;;5059364;28;20602;-68
2022/03/10 14:43:03;;;;;;;9.53;8.40;;;;;;;;;;5074943;28;20217;-69
2022/03/10 14:45:32;;;;;;;8.37;7.23;;;;;;;;;;5054114;28;20232;-67
2022/03/10 14:48:03;;;;;;;8.30;7.13;;;;;;;;;;5073952;28;20193;-68
2022/03/10 14:50:32;;;;;;;8.17;7.33;;;;;;;;;;5076542;28;20201;-67
2022/03/10 14:53:02;;;;;;;7.90;7.10;;;;;;;;;;5059246;28;20221;-68
2022/03/10 14:55:34;;;;;;;10.40;8.77;;;;;;;;;;5073755;28;20225;-67
2022/03/10 14:58:06;;;;;;;8.53;7.37;;;;;;;;;;5070624;28;20224;-67
2022/03/10 15:00:35;;;;;;;8.50;7.17;;;;;;;;;;5076671;28;20630;-67
2022/03/10 15:03:12;;;;;;;8.23;7.33;;;;;;;;;;5075873;28;20217;-68
2022/03/10 15:05:42;;;;;;;8.40;7.17;;;;;;;;;;5073349;28;20242;-69
2022/03/10 15:08:14;;;;;;;8.90;6.90;;;;;;;;;;5064808;28;20277;-68
2022/03/10 15:10:46;;;;;;;9.53;8.07;;;;;;;;;;5074698;28;20510;-68
2022/03/10 15:13:16;;;;;;;6.87;6.10;;;;;;;;;;5078029;28;20273;-68
2022/03/10 15:16:00;;;;;;;7.07;6.37;;;;;;;;;;5057853;28;20228;-68
2022/03/10 15:18:34;;;;;;;7.37;6.60;;;;;;;;;;5073443;28;20233;-69
2022/03/10 15:21:11;;;;;;;8.17;6.80;;;;;;;;;;5056888;28;20638;-67